sensor_id;sensor_type;location;lat;lon;timestamp;pressure;altitude;pressure_sealevel;temperature;humidity
76052;BME280;64751;48.708;9.710;2023-12-28T00:00:30;97706.28;;;1.46;83.88
76052;BME280;64751;48.708;9.710;2023-12-28T00:03:03;97711.47;;;1.46;84.55
76052;BME280;64751;48.708;9.710;2023-12-28T00:05:36;97723.34;;;1.42;84.42
76052;BME280;64751;48.708;9.710;2023-12-28T00:08:10;97720.50;;;1.44;84.62
76052;BME280;64751;48.708;9.710;2023-12-28T00:10:37;97729.13;;;1.44;84.68
76052;BME280;64751;48.708;9.710;2023-12-28T00:13:05;97725.94;;;1.42;83.73
76052;BME280;64751;48.708;9.710;2023-12-28T00:15:37;97732.94;;;1.42;84.51
76052;BME280;64751;48.708;9.710;2023-12-28T00:18:09;97726.97;;;1.35;83.43
76052;BME280;64751;48.708;9.710;2023-12-28T00:20:42;97725.59;;;1.32;83.71
76052;BME280;64751;48.708;9.710;2023-12-28T00:23:11;97721.84;;;1.28;83.13
76052;BME280;64751;48.708;9.710;2023-12-28T00:25:39;97724.66;;;1.27;83.84
76052;BME280;64751;48.708;9.710;2023-12-28T00:28:11;97731.09;;;1.24;84.31
76052;BME280;64751;48.708;9.710;2023-12-28T00:30:44;97727.50;;;1.25;84.65
76052;BME280;64751;48.708;9.710;2023-12-28T00:33:12;97732.31;;;1.22;84.45
76052;BME280;64751;48.708;9.710;2023-12-28T00:35:44;97735.94;;;1.21;84.45
76052;BME280;64751;48.708;9.710;2023-12-28T00:38:18;97741.59;;;1.11;83.27
76052;BME280;64751;48.708;9.710;2023-12-28T00:40:45;97742.41;;;1.12;84.91
76052;BME280;64751;48.708;9.710;2023-12-28T00:43:17;97749.38;;;1.11;83.85
76052;BME280;64751;48.708;9.710;2023-12-28T00:45:50;97745.22;;;1.04;83.09
76052;BME280;64751;48.708;9.710;2023-12-28T00:48:22;97737.66;;;1.02;83.01
76052;BME280;64751;48.708;9.710;2023-12-28T00:50:50;97740.47;;;1.01;84.37
76052;BME280;64751;48.708;9.710;2023-12-28T00:53:18;97737.06;;;1.00;84.72
76052;BME280;64751;48.708;9.710;2023-12-28T00:55:46;97725.88;;;1.00;84.42
76052;BME280;64751;48.708;9.710;2023-12-28T00:58:18;97730.72;;;0.96;84.74
76052;BME280;64751;48.708;9.710;2023-12-28T01:00:50;97726.66;;;1.00;85.61
76052;BME280;64751;48.708;9.710;2023-12-28T01:03:23;97731.66;;;1.02;85.64
76052;BME280;64751;48.708;9.710;2023-12-28T01:05:55;97750.25;;;0.99;84.63
76052;BME280;64751;48.708;9.710;2023-12-28T01:08:29;97739.84;;;0.99;85.42
76052;BME280;64751;48.708;9.710;2023-12-28T01:11:02;97742.84;;;1.02;85.74
76052;BME280;64751;48.708;9.710;2023-12-28T01:13:34;97742.63;;;1.04;85.46
76052;BME280;64751;48.708;9.710;2023-12-28T01:16:03;97747.28;;;0.95;84.32
76052;BME280;64751;48.708;9.710;2023-12-28T01:18:35;97755.31;;;0.94;84.54
76052;BME280;64751;48.708;9.710;2023-12-28T01:21:03;97754.91;;;0.90;85.55
76052;BME280;64751;48.708;9.710;2023-12-28T01:23:38;97751.56;;;0.83;83.86
76052;BME280;64751;48.708;9.710;2023-12-28T01:26:12;97755.84;;;0.71;84.38
76052;BME280;64751;48.708;9.710;2023-12-28T01:28:40;97746.44;;;0.70;83.89
76052;BME280;64751;48.708;9.710;2023-12-28T01:31:13;97737.03;;;0.76;85.08
76052;BME280;64751;48.708;9.710;2023-12-28T01:33:41;97737.84;;;0.76;84.90
76052;BME280;64751;48.708;9.710;2023-12-28T01:36:16;97745.41;;;0.78;84.59
76052;BME280;64751;48.708;9.710;2023-12-28T01:38:45;97746.03;;;0.73;83.88
76052;BME280;64751;48.708;9.710;2023-12-28T01:41:13;97750.66;;;0.71;84.27
76052;BME280;64751;48.708;9.710;2023-12-28T01:43:42;97749.81;;;0.77;85.41
76052;BME280;64751;48.708;9.710;2023-12-28T01:46:13;97748.59;;;0.80;85.80
76052;BME280;64751;48.708;9.710;2023-12-28T01:48:45;97756.66;;;0.71;84.46
76052;BME280;64751;48.708;9.710;2023-12-28T01:51:14;97757.06;;;0.68;84.48
76052;BME280;64751;48.708;9.710;2023-12-28T01:53:42;97768.25;;;0.69;84.96
76052;BME280;64751;48.708;9.710;2023-12-28T01:56:11;97769.25;;;0.68;85.20
76052;BME280;64751;48.708;9.710;2023-12-28T01:58:44;97769.25;;;0.68;85.10
76052;BME280;64751;48.708;9.710;2023-12-28T02:01:17;97769.47;;;0.66;85.78
76052;BME280;64751;48.708;9.710;2023-12-28T02:03:44;97778.06;;;0.67;85.40
76052;BME280;64751;48.708;9.710;2023-12-28T02:06:17;97781.88;;;0.64;85.60
76052;BME280;64751;48.708;9.710;2023-12-28T02:08:45;97770.06;;;0.62;84.55
76052;BME280;64751;48.708;9.710;2023-12-28T02:11:19;97781.91;;;0.58;84.36
76052;BME280;64751;48.708;9.710;2023-12-28T02:13:52;97776.88;;;0.56;84.46
76052;BME280;64751;48.708;9.710;2023-12-28T02:16:25;97780.88;;;0.59;85.28
76052;BME280;64751;48.708;9.710;2023-12-28T02:18:57;97787.69;;;0.60;84.81
76052;BME280;64751;48.708;9.710;2023-12-28T02:21:33;97782.84;;;0.63;85.86
76052;BME280;64751;48.708;9.710;2023-12-28T02:24:06;97793.44;;;0.68;86.19
76052;BME280;64751;48.708;9.710;2023-12-28T02:26:40;97794.28;;;0.62;85.43
76052;BME280;64751;48.708;9.710;2023-12-28T02:29:12;97796.88;;;0.62;85.21
76052;BME280;64751;48.708;9.710;2023-12-28T02:31:45;97802.44;;;0.66;86.15
76052;BME280;64751;48.708;9.710;2023-12-28T02:34:22;97811.88;;;0.60;85.19
76052;BME280;64751;48.708;9.710;2023-12-28T02:36:56;97812.06;;;0.59;86.03
76052;BME280;64751;48.708;9.710;2023-12-28T02:39:30;97807.47;;;0.54;85.89
76052;BME280;64751;48.708;9.710;2023-12-28T02:42:04;97799.06;;;0.59;86.50
76052;BME280;64751;48.708;9.710;2023-12-28T02:44:32;97802.69;;;0.58;85.28
76052;BME280;64751;48.708;9.710;2023-12-28T02:46:59;97810.06;;;0.54;85.44
76052;BME280;64751;48.708;9.710;2023-12-28T02:49:32;97809.25;;;0.54;85.70
76052;BME280;64751;48.708;9.710;2023-12-28T02:52:04;97811.47;;;0.57;86.06
76052;BME280;64751;48.708;9.710;2023-12-28T02:54:37;97819.03;;;0.58;86.03
76052;BME280;64751;48.708;9.710;2023-12-28T02:57:06;97812.66;;;0.54;85.13
76052;BME280;64751;48.708;9.710;2023-12-28T02:59:33;97809.25;;;0.54;85.72
76052;BME280;64751;48.708;9.710;2023-12-28T03:02:00;97811.47;;;0.57;86.60
76052;BME280;64751;48.708;9.710;2023-12-28T03:04:28;97824.06;;;0.60;86.47
76052;BME280;64751;48.708;9.710;2023-12-28T03:07:00;97816.28;;;0.53;85.57
76052;BME280;64751;48.708;9.710;2023-12-28T03:09:28;97810.28;;;0.53;85.18
76052;BME280;64751;48.708;9.710;2023-12-28T03:12:01;97801.31;;;0.49;85.43
76052;BME280;64751;48.708;9.710;2023-12-28T03:14:30;97802.31;;;0.48;85.29
76052;BME280;64751;48.708;9.710;2023-12-28T03:16:57;97792.94;;;0.47;85.27
76052;BME280;64751;48.708;9.710;2023-12-28T03:19:24;97794.31;;;0.43;85.91
76052;BME280;64751;48.708;9.710;2023-12-28T03:21:56;97785.94;;;0.41;85.97
76052;BME280;64751;48.708;9.710;2023-12-28T03:24:24;97778.16;;;0.41;86.65
76052;BME280;64751;48.708;9.710;2023-12-28T03:26:56;97788.53;;;0.41;86.20
76052;BME280;64751;48.708;9.710;2023-12-28T03:29:24;97793.56;;;0.42;86.87
76052;BME280;64751;48.708;9.710;2023-12-28T03:31:58;97788.72;;;0.46;86.97
76052;BME280;64751;48.708;9.710;2023-12-28T03:34:26;97789.91;;;0.50;87.31
76052;BME280;64751;48.708;9.710;2023-12-28T03:37:00;97787.75;;;0.47;86.77
76052;BME280;64751;48.708;9.710;2023-12-28T03:39:33;97788.72;;;0.46;86.64
76052;BME280;64751;48.708;9.710;2023-12-28T03:42:00;97778.38;;;0.39;86.56
76052;BME280;64751;48.708;9.710;2023-12-28T03:44:28;97788.72;;;0.46;86.83
76052;BME280;64751;48.708;9.710;2023-12-28T03:46:55;97786.53;;;0.43;86.57
76052;BME280;64751;48.708;9.710;2023-12-28T03:49:29;97794.94;;;0.45;87.56
76052;BME280;64751;48.708;9.710;2023-12-28T03:51:57;97791.31;;;0.46;87.13
76052;BME280;64751;48.708;9.710;2023-12-28T03:54:29;97792.53;;;0.43;86.86
76052;BME280;64751;48.708;9.710;2023-12-28T03:57:01;97800.31;;;0.43;87.32
76052;BME280;64751;48.708;9.710;2023-12-28T03:59:29;97804.31;;;0.46;87.05
76052;BME280;64751;48.708;9.710;2023-12-28T04:01:56;97806.91;;;0.46;87.30
76052;BME280;64751;48.708;9.710;2023-12-28T04:04:29;97801.50;;;0.47;88.00
76052;BME280;64751;48.708;9.710;2023-12-28T04:07:02;97796.72;;;0.51;88.57
76052;BME280;64751;48.708;9.710;2023-12-28T04:09:33;97793.50;;;0.55;88.63
76052;BME280;64751;48.708;9.710;2023-12-28T04:12:06;97805.28;;;0.58;88.54
76052;BME280;64751;48.708;9.710;2023-12-28T04:14:33;97803.06;;;0.61;89.05
76052;BME280;64751;48.708;9.710;2023-12-28T04:17:05;97805.84;;;0.66;89.55
76052;BME280;64751;48.708;9.710;2023-12-28T04:19:39;97799.84;;;0.66;88.57
76052;BME280;64751;48.708;9.710;2023-12-28T04:22:12;97792.44;;;0.63;88.59
76052;BME280;64751;48.708;9.710;2023-12-28T04:24:39;97791.66;;;0.62;88.36
76052;BME280;64751;48.708;9.710;2023-12-28T04:27:11;97786.06;;;0.59;88.61
76052;BME280;64751;48.708;9.710;2023-12-28T04:29:39;97773.13;;;0.52;88.36
76052;BME280;64751;48.708;9.710;2023-12-28T04:32:12;97775.31;;;0.55;89.15
76052;BME280;64751;48.708;9.710;2023-12-28T04:34:40;97761.28;;;0.56;88.98
76052;BME280;64751;48.708;9.710;2023-12-28T04:37:08;97767.06;;;0.58;89.14
76052;BME280;64751;48.708;9.710;2023-12-28T04:39:36;97771.06;;;0.61;89.25
76052;BME280;64751;48.708;9.710;2023-12-28T04:42:04;97775.06;;;0.63;89.09
76052;BME280;64751;48.708;9.710;2023-12-28T04:44:37;97769.06;;;0.63;88.71
76052;BME280;64751;48.708;9.710;2023-12-28T04:47:04;97767.25;;;0.63;89.25
76052;BME280;64751;48.708;9.710;2023-12-28T04:49:32;97772.06;;;0.66;89.10
76052;BME280;64751;48.708;9.710;2023-12-28T04:52:01;97772.84;;;0.67;89.21
76052;BME280;64751;48.708;9.710;2023-12-28T04:54:33;97766.44;;;0.69;89.31
76052;BME280;64751;48.708;9.710;2023-12-28T04:57:00;97773.00;;;0.72;89.24
76052;BME280;64751;48.708;9.710;2023-12-28T04:59:33;97779.63;;;0.68;88.93
76052;BME280;64751;48.708;9.710;2023-12-28T05:02:05;97773.22;;;0.70;89.31
76052;BME280;64751;48.708;9.710;2023-12-28T05:04:33;97772.66;;;0.68;89.33
76052;BME280;64751;48.708;9.710;2023-12-28T05:07:07;97765.22;;;0.72;90.37
76052;BME280;64751;48.708;9.710;2023-12-28T05:09:34;97758.22;;;0.72;90.01
76052;BME280;64751;48.708;9.710;2023-12-28T05:12:07;97762.63;;;0.72;89.23
76052;BME280;64751;48.708;9.710;2023-12-28T05:14:34;97772.97;;;0.79;90.14
76052;BME280;64751;48.708;9.710;2023-12-28T05:17:02;97769.34;;;0.86;90.66
76052;BME280;64751;48.708;9.710;2023-12-28T05:19:29;97771.31;;;0.91;90.46
76052;BME280;64751;48.708;9.710;2023-12-28T05:22:02;97763.13;;;0.94;91.14
76052;BME280;64751;48.708;9.710;2023-12-28T05:24:39;97756.47;;;0.98;91.75
76052;BME280;64751;48.708;9.710;2023-12-28T05:27:11;97763.66;;;1.02;91.41
76052;BME280;64751;48.708;9.710;2023-12-28T05:29:38;97762.00;;;1.08;90.97
76052;BME280;64751;48.708;9.710;2023-12-28T05:32:06;97780.59;;;1.11;91.78
76052;BME280;64751;48.708;9.710;2023-12-28T05:34:33;97782.34;;;1.17;91.88
76052;BME280;64751;48.708;9.710;2023-12-28T05:37:01;97790.09;;;1.24;92.38
76052;BME280;64751;48.708;9.710;2023-12-28T05:39:33;97788.25;;;1.31;91.76
76052;BME280;64751;48.708;9.710;2023-12-28T05:42:02;97783.22;;;1.36;91.62
76052;BME280;64751;48.708;9.710;2023-12-28T05:44:29;97778.97;;;1.41;92.43
76052;BME280;64751;48.708;9.710;2023-12-28T05:47:02;97779.53;;;1.43;91.92
76052;BME280;64751;48.708;9.710;2023-12-28T05:49:29;97778.13;;;1.48;93.00
76052;BME280;64751;48.708;9.710;2023-12-28T05:51:57;97772.06;;;1.54;92.96
76052;BME280;64751;48.708;9.710;2023-12-28T05:54:25;97778.81;;;1.61;92.39
76052;BME280;64751;48.708;9.710;2023-12-28T05:56:53;97779.75;;;1.67;92.28
76052;BME280;64751;48.708;9.710;2023-12-28T05:59:26;97781.09;;;1.76;92.01
76052;BME280;64751;48.708;9.710;2023-12-28T06:01:59;97789.06;;;1.81;92.93
76052;BME280;64751;48.708;9.710;2023-12-28T06:04:31;97786.59;;;1.86;93.35
76052;BME280;64751;48.708;9.710;2023-12-28T06:07:04;97785.59;;;1.87;93.14
76052;BME280;64751;48.708;9.710;2023-12-28T06:09:32;97788.34;;;1.92;93.21
76052;BME280;64751;48.708;9.710;2023-12-28T06:11:59;97800.94;;;1.95;93.46
76052;BME280;64751;48.708;9.710;2023-12-28T06:14:33;97799.91;;;1.96;93.02
76052;BME280;64751;48.708;9.710;2023-12-28T06:17:03;97798.47;;;2.00;92.91
76052;BME280;64751;48.708;9.710;2023-12-28T06:19:35;97801.88;;;2.00;93.69
76052;BME280;64751;48.708;9.710;2023-12-28T06:22:07;97792.84;;;2.03;93.60
76052;BME280;64751;48.708;9.710;2023-12-28T06:24:37;97801.22;;;2.05;94.32
76052;BME280;64751;48.708;9.710;2023-12-28T06:27:05;97799.59;;;2.10;93.61
76052;BME280;64751;48.708;9.710;2023-12-28T06:29:36;97807.53;;;2.15;93.60
76052;BME280;64751;48.708;9.710;2023-12-28T06:32:05;97808.50;;;2.21;94.35
76052;BME280;64751;48.708;9.710;2023-12-28T06:34:32;97801.25;;;2.23;94.59
76052;BME280;64751;48.708;9.710;2023-12-28T06:37:00;97800.25;;;2.24;95.32
76052;BME280;64751;48.708;9.710;2023-12-28T06:39:33;97811.44;;;2.25;95.35
76052;BME280;64751;48.708;9.710;2023-12-28T06:42:05;97797.41;;;2.26;94.67
76052;BME280;64751;48.708;9.710;2023-12-28T06:44:39;97805.00;;;2.27;95.65
76052;BME280;64751;48.708;9.710;2023-12-28T06:47:06;97799.38;;;2.30;94.38
76052;BME280;64751;48.708;9.710;2023-12-28T06:49:34;97805.72;;;2.34;95.04
76052;BME280;64751;48.708;9.710;2023-12-28T06:52:01;97812.09;;;2.38;94.59
76052;BME280;64751;48.708;9.710;2023-12-28T06:54:29;97821.69;;;2.44;95.46
76052;BME280;64751;48.708;9.710;2023-12-28T06:57:01;97818.84;;;2.46;94.13
76052;BME280;64751;48.708;9.710;2023-12-28T06:59:29;97822.81;;;2.48;94.63
76052;BME280;64751;48.708;9.710;2023-12-28T07:02:02;97822.59;;;2.50;95.34
76052;BME280;64751;48.708;9.710;2023-12-28T07:04:30;97827.81;;;2.50;95.30
76052;BME280;64751;48.708;9.710;2023-12-28T07:06:59;97817.97;;;2.52;96.00
76052;BME280;64751;48.708;9.710;2023-12-28T07:09:31;97823.56;;;2.55;95.06
76052;BME280;64751;48.708;9.710;2023-12-28T07:12:04;97819.91;;;2.56;95.78
76052;BME280;64751;48.708;9.710;2023-12-28T07:14:31;97823.66;;;2.60;95.95
76052;BME280;64751;48.708;9.710;2023-12-28T07:16:59;97824.63;;;2.66;95.66
76052;BME280;64751;48.708;9.710;2023-12-28T07:19:27;97830.19;;;2.69;95.32
76052;BME280;64751;48.708;9.710;2023-12-28T07:21:55;97825.34;;;2.73;95.00
76052;BME280;64751;48.708;9.710;2023-12-28T07:24:22;97826.91;;;2.74;95.70
76052;BME280;64751;48.708;9.710;2023-12-28T07:26:50;97831.38;;;2.73;96.87
76052;BME280;64751;48.708;9.710;2023-12-28T07:29:23;97825.50;;;2.78;96.94
76052;BME280;64751;48.708;9.710;2023-12-28T07:31:50;97817.44;;;2.79;97.75
76052;BME280;64751;48.708;9.710;2023-12-28T07:34:17;97824.53;;;2.90;96.39
76052;BME280;64751;48.708;9.710;2023-12-28T07:36:51;97822.81;;;2.96;96.53
76052;BME280;64751;48.708;9.710;2023-12-28T07:39:19;97836.59;;;3.03;96.20
76052;BME280;64751;48.708;9.710;2023-12-28T07:41:51;97829.13;;;3.07;97.26
76052;BME280;64751;48.708;9.710;2023-12-28T07:44:26;97825.84;;;3.11;96.87
76052;BME280;64751;48.708;9.710;2023-12-28T07:46:59;97837.19;;;3.17;98.15
76052;BME280;64751;48.708;9.710;2023-12-28T07:49:31;97840.97;;;3.21;97.98
76052;BME280;64751;48.708;9.710;2023-12-28T07:52:05;97817.13;;;3.17;98.12
76052;BME280;64751;48.708;9.710;2023-12-28T07:54:33;97834.63;;;3.28;97.57
76052;BME280;64751;48.708;9.710;2023-12-28T07:57:00;97835.22;;;3.30;97.94
76052;BME280;64751;48.708;9.710;2023-12-28T07:59:28;97830.78;;;3.31;99.50
76052;BME280;64751;48.708;9.710;2023-12-28T08:01:56;97835.56;;;3.34;99.18
76052;BME280;64751;48.708;9.710;2023-12-28T08:04:23;97846.13;;;3.39;99.54
76052;BME280;64751;48.708;9.710;2023-12-28T08:06:51;97851.72;;;3.42;99.65
76052;BME280;64751;48.708;9.710;2023-12-28T08:09:25;97851.25;;;3.45;98.46
76052;BME280;64751;48.708;9.710;2023-12-28T08:11:57;97853.09;;;3.45;99.14
76052;BME280;64751;48.708;9.710;2023-12-28T08:14:25;97851.59;;;3.49;99.25
76052;BME280;64751;48.708;9.710;2023-12-28T08:16:57;97851.94;;;3.52;98.75
76052;BME280;64751;48.708;9.710;2023-12-28T08:19:25;97849.03;;;3.60;99.40
76052;BME280;64751;48.708;9.710;2023-12-28T08:21:57;97855.16;;;3.66;98.27
76052;BME280;64751;48.708;9.710;2023-12-28T08:24:31;97858.13;;;3.70;98.13
76052;BME280;64751;48.708;9.710;2023-12-28T08:26:59;97849.63;;;3.74;98.63
76052;BME280;64751;48.708;9.710;2023-12-28T08:29:27;97854.63;;;3.76;97.89
76052;BME280;64751;48.708;9.710;2023-12-28T08:31:59;97858.38;;;3.80;98.31
76052;BME280;64751;48.708;9.710;2023-12-28T08:34:31;97856.13;;;3.83;98.04
76052;BME280;64751;48.708;9.710;2023-12-28T08:36:59;97861.91;;;3.85;97.12
76052;BME280;64751;48.708;9.710;2023-12-28T08:39:33;97865.66;;;3.89;97.45
76052;BME280;64751;48.708;9.710;2023-12-28T08:42:00;97868.59;;;3.93;96.56
76052;BME280;64751;48.708;9.710;2023-12-28T08:44:33;97858.94;;;3.93;96.82
76052;BME280;64751;48.708;9.710;2023-12-28T08:47:03;97859.50;;;3.95;96.98
76052;BME280;64751;48.708;9.710;2023-12-28T08:49:30;97856.09;;;3.95;97.96
76052;BME280;64751;48.708;9.710;2023-12-28T08:51:59;97857.72;;;3.96;98.80
76052;BME280;64751;48.708;9.710;2023-12-28T08:54:26;97857.84;;;4.01;98.19
76052;BME280;64751;48.708;9.710;2023-12-28T08:57:00;97875.66;;;4.04;97.61
76052;BME280;64751;48.708;9.710;2023-12-28T08:59:35;97859.28;;;4.08;97.46
76052;BME280;64751;48.708;9.710;2023-12-28T09:02:08;97871.69;;;4.13;97.46
76052;BME280;64751;48.708;9.710;2023-12-28T09:04:40;97875.66;;;4.15;97.73
76052;BME280;64751;48.708;9.710;2023-12-28T09:07:07;97871.56;;;4.19;97.79
76052;BME280;64751;48.708;9.710;2023-12-28T09:09:35;97878.97;;;4.22;98.64
76052;BME280;64751;48.708;9.710;2023-12-28T09:12:09;97875.91;;;4.25;98.64
76052;BME280;64751;48.708;9.710;2023-12-28T09:14:37;97879.41;;;4.31;98.72
76052;BME280;64751;48.708;9.710;2023-12-28T09:17:04;97884.75;;;4.36;98.91
76052;BME280;64751;48.708;9.710;2023-12-28T09:19:36;97883.50;;;4.38;97.60
76052;BME280;64751;48.708;9.710;2023-12-28T09:22:09;97876.81;;;4.43;98.87
76052;BME280;64751;48.708;9.710;2023-12-28T09:24:36;97877.94;;;4.47;99.16
76052;BME280;64751;48.708;9.710;2023-12-28T09:27:04;97880.09;;;4.50;99.46
76052;BME280;64751;48.708;9.710;2023-12-28T09:29:32;97876.00;;;4.54;99.13
76052;BME280;64751;48.708;9.710;2023-12-28T09:32:01;97873.13;;;4.55;97.55
76052;BME280;64751;48.708;9.710;2023-12-28T09:34:33;97861.22;;;4.59;97.31
76052;BME280;64751;48.708;9.710;2023-12-28T09:37:06;97857.69;;;4.65;95.89
76052;BME280;64751;48.708;9.710;2023-12-28T09:39:33;97867.00;;;4.73;92.70
76052;BME280;64751;48.708;9.710;2023-12-28T09:42:06;97860.03;;;4.78;92.45
76052;BME280;64751;48.708;9.710;2023-12-28T09:44:43;97869.47;;;4.91;88.07
76052;BME280;64751;48.708;9.710;2023-12-28T09:47:15;97875.13;;;4.99;89.14
76052;BME280;64751;48.708;9.710;2023-12-28T09:49:43;97873.16;;;5.06;88.39
76052;BME280;64751;48.708;9.710;2023-12-28T09:52:11;97868.25;;;5.10;88.32
76052;BME280;64751;48.708;9.710;2023-12-28T09:54:43;97861.84;;;5.18;87.41
76052;BME280;64751;48.708;9.710;2023-12-28T09:57:16;97859.00;;;5.19;89.05
76052;BME280;64751;48.708;9.710;2023-12-28T09:59:51;97869.63;;;5.29;89.31
76052;BME280;64751;48.708;9.710;2023-12-28T10:02:24;97863.50;;;5.35;88.46
76052;BME280;64751;48.708;9.710;2023-12-28T10:04:51;97870.09;;;5.38;87.63
76052;BME280;64751;48.708;9.710;2023-12-28T10:07:19;97870.41;;;5.41;88.16
76052;BME280;64751;48.708;9.710;2023-12-28T10:09:51;97866.28;;;5.45;86.97
76052;BME280;64751;48.708;9.710;2023-12-28T10:12:25;97855.88;;;5.50;86.68
76052;BME280;64751;48.708;9.710;2023-12-28T10:15:00;97846.53;;;5.54;87.86
76052;BME280;64751;48.708;9.710;2023-12-28T10:17:33;97855.28;;;5.60;88.35
76052;BME280;64751;48.708;9.710;2023-12-28T10:20:07;97864.00;;;5.65;86.89
76052;BME280;64751;48.708;9.710;2023-12-28T10:22:36;97861.78;;;5.74;84.69
76052;BME280;64751;48.708;9.710;2023-12-28T10:25:04;97863.47;;;5.80;84.91
76052;BME280;64751;48.708;9.710;2023-12-28T10:27:38;97865.97;;;5.87;82.61
76052;BME280;64751;48.708;9.710;2023-12-28T10:30:10;97865.00;;;5.93;85.25
76052;BME280;64751;48.708;9.710;2023-12-28T10:32:39;97864.28;;;5.97;84.31
76052;BME280;64751;48.708;9.710;2023-12-28T10:35:11;97863.34;;;6.03;83.93
76052;BME280;64751;48.708;9.710;2023-12-28T10:37:40;97861.84;;;6.07;84.39
76052;BME280;64751;48.708;9.710;2023-12-28T10:40:14;97860.53;;;6.10;84.38
76052;BME280;64751;48.708;9.710;2023-12-28T10:42:49;97863.25;;;6.15;85.45
76052;BME280;64751;48.708;9.710;2023-12-28T10:45:19;97865.41;;;6.18;86.00
76052;BME280;64751;48.708;9.710;2023-12-28T10:48:00;97850.78;;;6.22;84.43
76052;BME280;64751;48.708;9.710;2023-12-28T10:50:39;97850.84;;;6.27;82.00
76052;BME280;64751;48.708;9.710;2023-12-28T10:53:21;97850.38;;;6.30;83.11
76052;BME280;64751;48.708;9.710;2023-12-28T10:56:09;97841.22;;;6.32;84.74
76052;BME280;64751;48.708;9.710;2023-12-28T10:58:49;97844.97;;;6.36;91.04
76052;BME280;64751;48.708;9.710;2023-12-28T11:01:28;97850.25;;;6.41;91.41
76052;BME280;64751;48.708;9.710;2023-12-28T11:04:07;97840.31;;;6.43;90.64
76052;BME280;64751;48.708;9.710;2023-12-28T11:06:37;97840.63;;;6.47;90.82
76052;BME280;64751;48.708;9.710;2023-12-28T11:09:11;97839.38;;;6.49;91.51
76052;BME280;64751;48.708;9.710;2023-12-28T11:11:46;97846.00;;;6.57;89.98
76052;BME280;64751;48.708;9.710;2023-12-28T11:14:21;97845.81;;;6.64;87.48
76052;BME280;64751;48.708;9.710;2023-12-28T11:16:50;97838.34;;;6.72;85.36
76052;BME280;64751;48.708;9.710;2023-12-28T11:19:18;97839.72;;;6.80;84.72
76052;BME280;64751;48.708;9.710;2023-12-28T11:21:52;97822.84;;;6.92;87.90
76052;BME280;64751;48.708;9.710;2023-12-28T11:24:27;97827.38;;;7.02;86.86
76052;BME280;64751;48.708;9.710;2023-12-28T11:26:57;97828.00;;;7.09;83.74
76052;BME280;64751;48.708;9.710;2023-12-28T11:29:24;97819.91;;;7.15;84.59
76052;BME280;64751;48.708;9.710;2023-12-28T11:31:59;97813.38;;;7.18;84.45
76052;BME280;64751;48.708;9.710;2023-12-28T11:34:28;97820.31;;;7.29;80.92
76052;BME280;64751;48.708;9.710;2023-12-28T11:36:58;97816.22;;;7.38;83.86
76052;BME280;64751;48.708;9.710;2023-12-28T11:39:33;97816.31;;;7.48;83.53
76052;BME280;64751;48.708;9.710;2023-12-28T11:42:06;97799.81;;;7.58;80.31
76052;BME280;64751;48.708;9.710;2023-12-28T11:44:37;97797.56;;;7.66;77.36
76052;BME280;64751;48.708;9.710;2023-12-28T11:47:13;97815.25;;;7.81;78.26
76052;BME280;64751;48.708;9.710;2023-12-28T11:49:40;97805.38;;;7.93;76.74
76052;BME280;64751;48.708;9.710;2023-12-28T11:52:09;97792.59;;;8.07;76.75
76052;BME280;64751;48.708;9.710;2023-12-28T11:54:48;97796.31;;;8.16;77.00
76052;BME280;64751;48.708;9.710;2023-12-28T11:57:16;97800.28;;;8.23;75.82
76052;BME280;64751;48.708;9.710;2023-12-28T11:59:43;97799.03;;;8.26;75.16
76052;BME280;64751;48.708;9.710;2023-12-28T12:02:18;97801.97;;;8.29;75.89
76052;BME280;64751;48.708;9.710;2023-12-28T12:04:51;97800.63;;;8.32;75.40
76052;BME280;64751;48.708;9.710;2023-12-28T12:07:19;97800.44;;;8.38;74.08
76052;BME280;64751;48.708;9.710;2023-12-28T12:09:55;97802.00;;;8.39;72.91
76052;BME280;64751;48.708;9.710;2023-12-28T12:12:29;97788.34;;;8.42;72.55
76052;BME280;64751;48.708;9.710;2023-12-28T12:15:02;97784.66;;;8.43;73.90
76052;BME280;64751;48.708;9.710;2023-12-28T12:17:31;97792.84;;;8.47;72.99
76052;BME280;64751;48.708;9.710;2023-12-28T12:19:59;97783.03;;;8.37;73.22
76052;BME280;64751;48.708;9.710;2023-12-28T12:22:28;97786.75;;;8.41;72.95
76052;BME280;64751;48.708;9.710;2023-12-28T12:25:02;97785.41;;;8.39;72.67
76052;BME280;64751;48.708;9.710;2023-12-28T12:27:31;97777.25;;;8.35;72.71
76052;BME280;64751;48.708;9.710;2023-12-28T12:30:04;97773.03;;;8.34;72.79
76052;BME280;64751;48.708;9.710;2023-12-28T12:32:34;97775.66;;;8.34;72.79
76052;BME280;64751;48.708;9.710;2023-12-28T12:35:06;97776.72;;;8.33;72.98
76052;BME280;64751;48.708;9.710;2023-12-28T12:37:34;97765.91;;;8.30;73.32
76052;BME280;64751;48.708;9.710;2023-12-28T12:40:03;97769.31;;;8.30;74.31
76052;BME280;64751;48.708;9.710;2023-12-28T12:42:32;97780.91;;;8.29;73.63
76052;BME280;64751;48.708;9.710;2023-12-28T12:45:05;97772.75;;;8.31;73.43
76052;BME280;64751;48.708;9.710;2023-12-28T12:47:39;97770.38;;;8.29;74.13
76052;BME280;64751;48.708;9.710;2023-12-28T12:50:12;97769.59;;;8.29;73.88
76052;BME280;64751;48.708;9.710;2023-12-28T12:52:44;97769.06;;;8.27;74.26
76052;BME280;64751;48.708;9.710;2023-12-28T12:55:12;97764.56;;;8.27;74.67
76052;BME280;64751;48.708;9.710;2023-12-28T12:57:45;97763.22;;;8.25;74.91
76052;BME280;64751;48.708;9.710;2023-12-28T13:00:13;97759.81;;;8.24;75.38
76052;BME280;64751;48.708;9.710;2023-12-28T13:02:42;97765.28;;;8.23;76.44
76052;BME280;64751;48.708;9.710;2023-12-28T13:05:09;97758.19;;;8.18;75.95
76052;BME280;64751;48.708;9.710;2023-12-28T13:07:39;97746.34;;;8.16;74.75
76052;BME280;64751;48.708;9.710;2023-12-28T13:10:12;97746.56;;;8.14;75.37
76052;BME280;64751;48.708;9.710;2023-12-28T13:12:44;97753.94;;;8.12;76.37
76052;BME280;64751;48.708;9.710;2023-12-28T13:15:12;97761.31;;;8.15;77.55
76052;BME280;64751;48.708;9.710;2023-12-28T13:17:39;97758.66;;;8.10;78.78
76052;BME280;64751;48.708;9.710;2023-12-28T13:20:13;97763.88;;;8.05;79.46
76052;BME280;64751;48.708;9.710;2023-12-28T13:22:41;97754.66;;;8.02;80.52
76052;BME280;64751;48.708;9.710;2023-12-28T13:25:14;97759.16;;;8.02;82.14
76052;BME280;64751;48.708;9.710;2023-12-28T13:27:42;97771.19;;;7.98;84.86